sensor_id;sensor_type;location;lat;lon;timestamp;temperature;humidity
7822;DHT22;3956;50.558;9.678;2022-08-03T00:01:48;18.40;99.90
7822;DHT22;3956;50.558;9.678;2022-08-03T00:04:17;18.20;99.90
7822;DHT22;3956;50.558;9.678;2022-08-03T00:06:46;18.20;99.90
7822;DHT22;3956;50.558;9.678;2022-08-03T00:09:16;18.30;99.90
7822;DHT22;3956;50.558;9.678;2022-08-03T00:11:44;18.40;99.90
7822;DHT22;3956;50.558;9.678;2022-08-03T00:14:18;18.30;99.90
7822;DHT22;3956;50.558;9.678;2022-08-03T00:16:49;18.10;99.90
7822;DHT22;3956;50.558;9.678;2022-08-03T00:19:25;18.10;99.90
7822;DHT22;3956;50.558;9.678;2022-08-03T00:21:54;18.10;99.90
7822;DHT22;3956;50.558;9.678;2022-08-03T00:24:24;18.00;99.90
7822;DHT22;3956;50.558;9.678;2022-08-03T00:26:52;18.00;99.90
7822;DHT22;3956;50.558;9.678;2022-08-03T00:29:21;18.00;99.90
7822;DHT22;3956;50.558;9.678;2022-08-03T00:31:53;18.00;99.90
7822;DHT22;3956;50.558;9.678;2022-08-03T00:34:26;18.10;99.90
7822;DHT22;3956;50.558;9.678;2022-08-03T00:37:15;18.00;99.90
7822;DHT22;3956;50.558;9.678;2022-08-03T00:39:44;17.90;99.90
7822;DHT22;3956;50.558;9.678;2022-08-03T00:42:14;17.90;99.90
7822;DHT22;3956;50.558;9.678;2022-08-03T00:44:44;17.80;99.90
7822;DHT22;3956;50.558;9.678;2022-08-03T00:47:17;17.90;99.90
7822;DHT22;3956;50.558;9.678;2022-08-03T00:49:48;17.90;99.90
7822;DHT22;3956;50.558;9.678;2022-08-03T00:52:16;17.80;99.90
7822;DHT22;3956;50.558;9.678;2022-08-03T00:54:45;17.90;99.90
7822;DHT22;3956;50.558;9.678;2022-08-03T00:57:15;17.90;99.90
7822;DHT22;3956;50.558;9.678;2022-08-03T00:59:47;17.70;99.90
7822;DHT22;3956;50.558;9.678;2022-08-03T01:02:19;17.80;99.90
7822;DHT22;3956;50.558;9.678;2022-08-03T01:04:48;17.70;99.90
7822;DHT22;3956;50.558;9.678;2022-08-03T01:07:24;17.60;99.90
7822;DHT22;3956;50.558;9.678;2022-08-03T01:10:00;17.60;99.90
7822;DHT22;3956;50.558;9.678;2022-08-03T01:12:35;17.50;99.90
7822;DHT22;3956;50.558;9.678;2022-08-03T01:15:10;17.40;99.90
7822;DHT22;3956;50.558;9.678;2022-08-03T01:17:48;17.50;99.90
7822;DHT22;3956;50.558;9.678;2022-08-03T01:33:27;17.50;99.90
7822;DHT22;3956;50.558;9.678;2022-08-03T01:35:59;17.50;99.90
7822;DHT22;3956;50.558;9.678;2022-08-03T01:38:33;17.30;99.90
7822;DHT22;3956;50.558;9.678;2022-08-03T01:41:06;17.40;99.90
7822;DHT22;3956;50.558;9.678;2022-08-03T01:43:38;17.30;99.90
7822;DHT22;3956;50.558;9.678;2022-08-03T01:46:30;17.30;99.90
7822;DHT22;3956;50.558;9.678;2022-08-03T01:48:58;17.30;99.90
7822;DHT22;3956;50.558;9.678;2022-08-03T01:51:36;17.30;99.90
7822;DHT22;3956;50.558;9.678;2022-08-03T01:54:32;17.20;99.90
7822;DHT22;3956;50.558;9.678;2022-08-03T01:57:08;17.20;99.90
7822;DHT22;3956;50.558;9.678;2022-08-03T01:59:39;17.20;99.90
7822;DHT22;3956;50.558;9.678;2022-08-03T02:02:13;17.20;99.90
7822;DHT22;3956;50.558;9.678;2022-08-03T02:05:00;17.10;99.90
7822;DHT22;3956;50.558;9.678;2022-08-03T02:07:32;16.90;99.90
7822;DHT22;3956;50.558;9.678;2022-08-03T02:10:07;17.00;99.90
7822;DHT22;3956;50.558;9.678;2022-08-03T02:12:37;17.10;99.90
7822;DHT22;3956;50.558;9.678;2022-08-03T02:15:08;17.00;99.90
7822;DHT22;3956;50.558;9.678;2022-08-03T02:17:47;17.10;99.90
7822;DHT22;3956;50.558;9.678;2022-08-03T02:20:41;17.10;99.90
7822;DHT22;3956;50.558;9.678;2022-08-03T02:23:15;17.10;99.90
7822;DHT22;3956;50.558;9.678;2022-08-03T02:25:47;17.20;99.90
7822;DHT22;3956;50.558;9.678;2022-08-03T02:28:19;17.10;99.90
7822;DHT22;3956;50.558;9.678;2022-08-03T02:30:52;17.10;99.90
7822;DHT22;3956;50.558;9.678;2022-08-03T02:33:35;16.90;99.90
7822;DHT22;3956;50.558;9.678;2022-08-03T02:36:07;16.90;99.90
7822;DHT22;3956;50.558;9.678;2022-08-03T02:38:43;17.00;99.90
7822;DHT22;3956;50.558;9.678;2022-08-03T02:41:19;17.00;99.90
7822;DHT22;3956;50.558;9.678;2022-08-03T02:43:54;16.90;99.90
7822;DHT22;3956;50.558;9.678;2022-08-03T02:46:37;16.80;99.90
7822;DHT22;3956;50.558;9.678;2022-08-03T02:49:10;16.70;99.90
7822;DHT22;3956;50.558;9.678;2022-08-03T02:52:00;16.70;99.90
7822;DHT22;3956;50.558;9.678;2022-08-03T02:54:39;16.60;99.90
7822;DHT22;3956;50.558;9.678;2022-08-03T02:57:10;16.60;99.90
7822;DHT22;3956;50.558;9.678;2022-08-03T02:59:40;16.60;99.90
7822;DHT22;3956;50.558;9.678;2022-08-03T03:02:14;16.50;99.90
7822;DHT22;3956;50.558;9.678;2022-08-03T03:04:51;16.40;99.90
7822;DHT22;3956;50.558;9.678;2022-08-03T03:08:07;16.40;99.90
7822;DHT22;3956;50.558;9.678;2022-08-03T03:11:04;16.40;99.90
7822;DHT22;3956;50.558;9.678;2022-08-03T03:13:56;16.40;99.90
7822;DHT22;3956;50.558;9.678;2022-08-03T03:16:35;16.40;99.90
7822;DHT22;3956;50.558;9.678;2022-08-03T03:19:07;16.30;99.90
7822;DHT22;3956;50.558;9.678;2022-08-03T03:28:36;16.40;99.90
7822;DHT22;3956;50.558;9.678;2022-08-03T03:31:08;16.40;99.90
7822;DHT22;3956;50.558;9.678;2022-08-03T03:33:39;16.50;99.90
7822;DHT22;3956;50.558;9.678;2022-08-03T03:39:51;16.50;99.90
7822;DHT22;3956;50.558;9.678;2022-08-03T03:42:32;16.50;99.90
7822;DHT22;3956;50.558;9.678;2022-08-03T03:45:33;16.40;99.90
7822;DHT22;3956;50.558;9.678;2022-08-03T03:48:43;16.40;99.90
7822;DHT22;3956;50.558;9.678;2022-08-03T03:51:14;16.40;99.90
7822;DHT22;3956;50.558;9.678;2022-08-03T03:53:55;16.30;99.90
7822;DHT22;3956;50.558;9.678;2022-08-03T03:56:23;16.10;99.90
7822;DHT22;3956;50.558;9.678;2022-08-03T03:59:01;16.10;99.90
7822;DHT22;3956;50.558;9.678;2022-08-03T04:01:38;16.20;99.90
7822;DHT22;3956;50.558;9.678;2022-08-03T04:04:38;16.10;99.90
7822;DHT22;3956;50.558;9.678;2022-08-03T04:07:26;16.00;99.90
7822;DHT22;3956;50.558;9.678;2022-08-03T04:10:23;16.00;99.90
7822;DHT22;3956;50.558;9.678;2022-08-03T04:13:16;15.90;99.90
7822;DHT22;3956;50.558;9.678;2022-08-03T04:15:47;16.10;99.90
7822;DHT22;3956;50.558;9.678;2022-08-03T04:18:21;16.00;99.90
7822;DHT22;3956;50.558;9.678;2022-08-03T04:20:54;16.00;99.90
7822;DHT22;3956;50.558;9.678;2022-08-03T04:23:30;16.00;99.90
7822;DHT22;3956;50.558;9.678;2022-08-03T04:26:03;16.10;99.90
7822;DHT22;3956;50.558;9.678;2022-08-03T04:29:22;16.10;99.90
7822;DHT22;3956;50.558;9.678;2022-08-03T04:32:23;16.20;99.90
7822;DHT22;3956;50.558;9.678;2022-08-03T04:35:23;16.20;99.90
7822;DHT22;3956;50.558;9.678;2022-08-03T04:38:18;16.30;99.90
7822;DHT22;3956;50.558;9.678;2022-08-03T04:41:41;16.30;99.90
7822;DHT22;3956;50.558;9.678;2022-08-03T04:44:44;16.30;99.90
7822;DHT22;3956;50.558;9.678;2022-08-03T04:47:14;16.20;99.90
7822;DHT22;3956;50.558;9.678;2022-08-03T04:49:54;16.30;99.90
7822;DHT22;3956;50.558;9.678;2022-08-03T04:56:31;16.20;99.90
7822;DHT22;3956;50.558;9.678;2022-08-03T04:59:41;16.10;99.90
7822;DHT22;3956;50.558;9.678;2022-08-03T05:02:47;16.20;99.90
7822;DHT22;3956;50.558;9.678;2022-08-03T05:05:17;16.30;99.90
7822;DHT22;3956;50.558;9.678;2022-08-03T05:07:43;16.30;99.90
7822;DHT22;3956;50.558;9.678;2022-08-03T05:10:17;16.40;99.90
7822;DHT22;3956;50.558;9.678;2022-08-03T05:12:55;16.50;99.90
7822;DHT22;3956;50.558;9.678;2022-08-03T05:15:23;16.60;99.90
7822;DHT22;3956;50.558;9.678;2022-08-03T05:17:56;16.60;99.90
7822;DHT22;3956;50.558;9.678;2022-08-03T05:20:29;16.60;99.90
7822;DHT22;3956;50.558;9.678;2022-08-03T05:23:01;16.60;99.90
7822;DHT22;3956;50.558;9.678;2022-08-03T05:25:33;16.80;99.90
7822;DHT22;3956;50.558;9.678;2022-08-03T05:28:10;16.90;99.90
7822;DHT22;3956;50.558;9.678;2022-08-03T05:30:52;17.00;99.90
7822;DHT22;3956;50.558;9.678;2022-08-03T05:33:26;17.10;99.90
7822;DHT22;3956;50.558;9.678;2022-08-03T05:35:57;17.20;99.90
7822;DHT22;3956;50.558;9.678;2022-08-03T05:38:35;17.20;99.90
7822;DHT22;3956;50.558;9.678;2022-08-03T05:41:20;17.30;99.90
7822;DHT22;3956;50.558;9.678;2022-08-03T05:48:22;17.50;99.90
7822;DHT22;3956;50.558;9.678;2022-08-03T05:51:42;17.60;99.90
7822;DHT22;3956;50.558;9.678;2022-08-03T05:54:32;17.70;99.90
7822;DHT22;3956;50.558;9.678;2022-08-03T05:57:20;17.60;99.90
7822;DHT22;3956;50.558;9.678;2022-08-03T06:00:01;17.80;99.90
7822;DHT22;3956;50.558;9.678;2022-08-03T06:03:00;17.90;99.90
7822;DHT22;3956;50.558;9.678;2022-08-03T06:05:28;17.80;99.90
7822;DHT22;3956;50.558;9.678;2022-08-03T06:07:58;17.80;99.90
7822;DHT22;3956;50.558;9.678;2022-08-03T06:10:32;18.00;99.90
7822;DHT22;3956;50.558;9.678;2022-08-03T06:13:03;18.10;99.90
7822;DHT22;3956;50.558;9.678;2022-08-03T06:15:39;18.30;99.90
7822;DHT22;3956;50.558;9.678;2022-08-03T06:18:37;18.20;99.90
7822;DHT22;3956;50.558;9.678;2022-08-03T06:21:44;18.40;99.90
7822;DHT22;3956;50.558;9.678;2022-08-03T06:24:55;18.70;99.90
7822;DHT22;3956;50.558;9.678;2022-08-03T06:27:30;18.90;99.90
7822;DHT22;3956;50.558;9.678;2022-08-03T06:30:03;18.90;99.90
7822;DHT22;3956;50.558;9.678;2022-08-03T06:32:33;19.10;99.90
7822;DHT22;3956;50.558;9.678;2022-08-03T06:35:10;19.20;99.90
7822;DHT22;3956;50.558;9.678;2022-08-03T06:37:50;19.30;99.90
7822;DHT22;3956;50.558;9.678;2022-08-03T06:40:35;19.30;99.90
7822;DHT22;3956;50.558;9.678;2022-08-03T06:43:06;19.60;99.90
7822;DHT22;3956;50.558;9.678;2022-08-03T06:45:43;19.70;99.90
7822;DHT22;3956;50.558;9.678;2022-08-03T06:48:45;19.80;99.90
7822;DHT22;3956;50.558;9.678;2022-08-03T06:51:19;19.80;99.90
7822;DHT22;3956;50.558;9.678;2022-08-03T06:54:21;19.90;99.90
7822;DHT22;3956;50.558;9.678;2022-08-03T06:57:04;20.20;99.90
7822;DHT22;3956;50.558;9.678;2022-08-03T07:00:12;20.50;99.90
7822;DHT22;3956;50.558;9.678;2022-08-03T07:03:18;20.90;99.90
7822;DHT22;3956;50.558;9.678;2022-08-03T07:05:57;21.50;99.90
7822;DHT22;3956;50.558;9.678;2022-08-03T07:08:44;24.60;99.90
7822;DHT22;3956;50.558;9.678;2022-08-03T07:12:20;26.40;99.90
7822;DHT22;3956;50.558;9.678;2022-08-03T07:19:31;29.20;99.90
7822;DHT22;3956;50.558;9.678;2022-08-03T07:22:38;29.00;99.90
7822;DHT22;3956;50.558;9.678;2022-08-03T07:25:55;30.00;99.90
7822;DHT22;3956;50.558;9.678;2022-08-03T07:28:23;31.10;99.90
7822;DHT22;3956;50.558;9.678;2022-08-03T07:30:56;32.60;99.90
7822;DHT22;3956;50.558;9.678;2022-08-03T07:33:26;32.70;99.90
7822;DHT22;3956;50.558;9.678;2022-08-03T07:35:55;32.10;99.90
7822;DHT22;3956;50.558;9.678;2022-08-03T07:38:27;32.20;99.90
7822;DHT22;3956;50.558;9.678;2022-08-03T07:42:11;30.80;99.90
7822;DHT22;3956;50.558;9.678;2022-08-03T07:45:09;31.80;99.90
7822;DHT22;3956;50.558;9.678;2022-08-03T07:48:26;32.50;99.90
7822;DHT22;3956;50.558;9.678;2022-08-03T07:55:12;32.60;99.90
7822;DHT22;3956;50.558;9.678;2022-08-03T07:58:04;31.50;99.90
7822;DHT22;3956;50.558;9.678;2022-08-03T08:01:07;32.20;99.90
7822;DHT22;3956;50.558;9.678;2022-08-03T08:07:28;33.70;99.90
7822;DHT22;3956;50.558;9.678;2022-08-03T08:17:21;32.00;99.90
7822;DHT22;3956;50.558;9.678;2022-08-03T08:20:09;31.60;99.90
7822;DHT22;3956;50.558;9.678;2022-08-03T08:22:38;31.50;99.90
7822;DHT22;3956;50.558;9.678;2022-08-03T08:25:09;32.60;99.90
7822;DHT22;3956;50.558;9.678;2022-08-03T08:28:11;33.10;99.90
7822;DHT22;3956;50.558;9.678;2022-08-03T08:30:55;34.20;99.90
7822;DHT22;3956;50.558;9.678;2022-08-03T08:33:29;35.90;99.90
7822;DHT22;3956;50.558;9.678;2022-08-03T08:36:24;35.30;99.90
7822;DHT22;3956;50.558;9.678;2022-08-03T08:39:14;35.80;99.90
7822;DHT22;3956;50.558;9.678;2022-08-03T08:41:49;34.00;99.90
7822;DHT22;3956;50.558;9.678;2022-08-03T08:44:23;32.50;99.90
7822;DHT22;3956;50.558;9.678;2022-08-03T08:47:21;35.00;99.90
7822;DHT22;3956;50.558;9.678;2022-08-03T08:53:53;33.30;99.90
7822;DHT22;3956;50.558;9.678;2022-08-03T08:56:35;33.80;99.90
7822;DHT22;3956;50.558;9.678;2022-08-03T08:59:26;33.60;99.90
7822;DHT22;3956;50.558;9.678;2022-08-03T09:02:21;33.80;99.90
7822;DHT22;3956;50.558;9.678;2022-08-03T09:05:30;35.30;99.90
7822;DHT22;3956;50.558;9.678;2022-08-03T09:08:45;35.10;99.90
7822;DHT22;3956;50.558;9.678;2022-08-03T09:11:15;34.90;99.90
7822;DHT22;3956;50.558;9.678;2022-08-03T09:13:49;34.00;99.90
7822;DHT22;3956;50.558;9.678;2022-08-03T09:16:21;34.50;99.90
7822;DHT22;3956;50.558;9.678;2022-08-03T09:19:16;34.00;99.90
7822;DHT22;3956;50.558;9.678;2022-08-03T09:22:07;33.30;99.90
7822;DHT22;3956;50.558;9.678;2022-08-03T09:24:57;33.70;99.90
7822;DHT22;3956;50.558;9.678;2022-08-03T09:28:07;35.20;99.90
7822;DHT22;3956;50.558;9.678;2022-08-03T09:31:05;34.40;99.90
7822;DHT22;3956;50.558;9.678;2022-08-03T09:33:54;35.50;99.90
7822;DHT22;3956;50.558;9.678;2022-08-03T09:36:42;34.40;99.90
7822;DHT22;3956;50.558;9.678;2022-08-03T09:39:18;33.20;99.90
7822;DHT22;3956;50.558;9.678;2022-08-03T09:42:36;32.40;99.90
7822;DHT22;3956;50.558;9.678;2022-08-03T09:45:40;30.70;99.90
7822;DHT22;3956;50.558;9.678;2022-08-03T09:48:23;30.50;99.90
7822;DHT22;3956;50.558;9.678;2022-08-03T09:51:06;30.50;99.90
7822;DHT22;3956;50.558;9.678;2022-08-03T09:54:39;30.30;99.90
7822;DHT22;3956;50.558;9.678;2022-08-03T09:57:58;30.10;99.90
7822;DHT22;3956;50.558;9.678;2022-08-03T10:19:34;30.20;99.90
7822;DHT22;3956;50.558;9.678;2022-08-03T10:22:57;30.10;99.90
7822;DHT22;3956;50.558;9.678;2022-08-03T10:26:14;29.90;99.90
7822;DHT22;3956;50.558;9.678;2022-08-03T10:29:36;30.10;99.90
7822;DHT22;3956;50.558;9.678;2022-08-03T10:32:33;30.30;99.90
7822;DHT22;3956;50.558;9.678;2022-08-03T10:35:30;30.40;99.90
7822;DHT22;3956;50.558;9.678;2022-08-03T10:38:00;30.10;99.90
7822;DHT22;3956;50.558;9.678;2022-08-03T10:40:31;30.20;99.90
7822;DHT22;3956;50.558;9.678;2022-08-03T10:43:21;30.10;99.90
7822;DHT22;3956;50.558;9.678;2022-08-03T10:45:51;30.30;99.90
7822;DHT22;3956;50.558;9.678;2022-08-03T10:50:50;30.40;99.90
7822;DHT22;3956;50.558;9.678;2022-08-03T10:53:35;30.30;99.90
7822;DHT22;3956;50.558;9.678;2022-08-03T10:56:09;29.90;99.90
7822;DHT22;3956;50.558;9.678;2022-08-03T10:59:11;29.70;99.90
7822;DHT22;3956;50.558;9.678;2022-08-03T11:02:05;30.20;99.90
7822;DHT22;3956;50.558;9.678;2022-08-03T11:05:29;30.70;99.90
7822;DHT22;3956;50.558;9.678;2022-08-03T11:08:30;30.70;99.90
7822;DHT22;3956;50.558;9.678;2022-08-03T11:11:24;30.00;99.90
7822;DHT22;3956;50.558;9.678;2022-08-03T11:13:58;30.50;99.90
7822;DHT22;3956;50.558;9.678;2022-08-03T11:16:48;30.20;99.90
7822;DHT22;3956;50.558;9.678;2022-08-03T11:19:45;30.40;99.90
7822;DHT22;3956;50.558;9.678;2022-08-03T11:22:49;30.90;99.90
7822;DHT22;3956;50.558;9.678;2022-08-03T11:28:45;30.20;99.90
7822;DHT22;3956;50.558;9.678;2022-08-03T11:32:08;30.20;99.90
7822;DHT22;3956;50.558;9.678;2022-08-03T11:35:20;30.40;99.90
7822;DHT22;3956;50.558;9.678;2022-08-03T11:38:37;30.80;99.90
7822;DHT22;3956;50.558;9.678;2022-08-03T11:46:13;30.90;99.90
7822;DHT22;3956;50.558;9.678;2022-08-03T12:03:11;31.30;99.90
7822;DHT22;3956;50.558;9.678;2022-08-03T12:05:50;30.80;99.90
7822;DHT22;3956;50.558;9.678;2022-08-03T12:09:21;30.70;99.90
7822;DHT22;3956;50.558;9.678;2022-08-03T12:16:23;31.20;99.90
7822;DHT22;3956;50.558;9.678;2022-08-03T12:19:17;31.20;99.90
7822;DHT22;3956;50.558;9.678;2022-08-03T12:21:52;31.50;99.90
7822;DHT22;3956;50.558;9.678;2022-08-03T12:24:39;31.50;99.90
7822;DHT22;3956;50.558;9.678;2022-08-03T12:27:10;31.10;99.90
7822;DHT22;3956;50.558;9.678;2022-08-03T12:29:51;31.20;99.90
7822;DHT22;3956;50.558;9.678;2022-08-03T12:43:29;31.10;99.90
7822;DHT22;3956;50.558;9.678;2022-08-03T12:46:28;30.80;99.90
7822;DHT22;3956;50.558;9.678;2022-08-03T12:49:21;31.10;99.90
7822;DHT22;3956;50.558;9.678;2022-08-03T12:51:57;31.30;99.90
7822;DHT22;3956;50.558;9.678;2022-08-03T12:54:35;31.50;99.90
7822;DHT22;3956;50.558;9.678;2022-08-03T12:57:07;31.70;99.90
7822;DHT22;3956;50.558;9.678;2022-08-03T13:00:08;31.50;99.90
7822;DHT22;3956;50.558;9.678;2022-08-03T13:03:41;31.40;99.90
7822;DHT22;3956;50.558;9.678;2022-08-03T13:07:07;31.00;99.90
7822;DHT22;3956;50.558;9.678;2022-08-03T13:09:54;31.30;99.90
7822;DHT22;3956;50.558;9.678;2022-08-03T13:20:38;31.60;99.90
7822;DHT22;3956;50.558;9.678;2022-08-03T13:23:10;31.60;99.90
7822;DHT22;3956;50.558;9.678;2022-08-03T13:25:49;31.80;99.90
7822;DHT22;3956;50.558;9.678;2022-08-03T13:28:37;31.70;99.90
7822;DHT22;3956;50.558;9.678;2022-08-03T13:31:08;32.00;99.90
7822;DHT22;3956;50.558;9.678;2022-08-03T13:33:40;32.20;99.90
7822;DHT22;3956;50.558;9.678;2022-08-03T13:36:26;32.30;99.90
7822;DHT22;3956;50.558;9.678;2022-08-03T13:39:18;32.40;99.90
7822;DHT22;3956;50.558;9.678;2022-08-03T13:42:51;32.40;99.90
7822;DHT22;3956;50.558;9.678;2022-08-03T13:45:55;32.40;99.90
7822;DHT22;3956;50.558;9.678;2022-08-03T13:48:31;32.60;99.90
7822;DHT22;3956;50.558;9.678;2022-08-03T13:51:39;32.60;99.90
7822;DHT22;3956;50.558;9.678;2022-08-03T13:57:19;33.10;99.90
7822;DHT22;3956;50.558;9.678;2022-08-03T14:00:45;33.00;99.90
7822;DHT22;3956;50.558;9.678;2022-08-03T14:04:11;32.50;99.90
7822;DHT22;3956;50.558;9.678;2022-08-03T14:11:12;32.30;99.90
7822;DHT22;3956;50.558;9.678;2022-08-03T14:13:44;32.40;99.90
7822;DHT22;3956;50.558;9.678;2022-08-03T14:16:13;32.40;99.90
7822;DHT22;3956;50.558;9.678;2022-08-03T14:18:53;32.40;99.90
7822;DHT22;3956;50.558;9.678;2022-08-03T14:21:24;32.50;99.90
7822;DHT22;3956;50.558;9.678;2022-08-03T14:23:54;32.60;99.90
7822;DHT22;3956;50.558;9.678;2022-08-03T14:26:25;32.00;99.90
7822;DHT22;3956;50.558;9.678;2022-08-03T14:28:57;32.30;99.90
7822;DHT22;3956;50.558;9.678;2022-08-03T14:31:31;32.30;99.90
7822;DHT22;3956;50.558;9.678;2022-08-03T14:34:20;32.30;99.90
7822;DHT22;3956;50.558;9.678;2022-08-03T14:39:55;32.60;99.90
7822;DHT22;3956;50.558;9.678;2022-08-03T14:42:31;32.20;99.90
7822;DHT22;3956;50.558;9.678;2022-08-03T14:45:03;32.40;99.90
7822;DHT22;3956;50.558;9.678;2022-08-03T14:47:46;32.60;99.90
7822;DHT22;3956;50.558;9.678;2022-08-03T14:50:34;32.60;99.90
7822;DHT22;3956;50.558;9.678;2022-08-03T14:53:11;32.60;99.90
7822;DHT22;3956;50.558;9.678;2022-08-03T14:55:41;32.50;99.90
7822;DHT22;3956;50.558;9.678;2022-08-03T14:58:37;32.30;99.90
7822;DHT22;3956;50.558;9.678;2022-08-03T15:02:02;32.50;99.90
7822;DHT22;3956;50.558;9.678;2022-08-03T15:04:46;32.40;99.90
7822;DHT22;3956;50.558;9.678;2022-08-03T15:07:46;32.30;99.90
7822;DHT22;3956;50.558;9.678;2022-08-03T15:11:01;32.30;99.90
7822;DHT22;3956;50.558;9.678;2022-08-03T15:13:38;32.50;99.90
7822;DHT22;3956;50.558;9.678;2022-08-03T15:16:23;32.60;99.90
7822;DHT22;3956;50.558;9.678;2022-08-03T15:19:09;32.40;99.90
7822;DHT22;3956;50.558;9.678;2022-08-03T15:22:37;32.50;99.90
7822;DHT22;3956;50.558;9.678;2022-08-03T15:25:43;32.60;99.90
7822;DHT22;3956;50.558;9.678;2022-08-03T15:28:52;32.40;99.90
7822;DHT22;3956;50.558;9.678;2022-08-03T15:32:13;32.80;99.90
7822;DHT22;3956;50.558;9.678;2022-08-03T15:35:47;32.80;99.90
7822;DHT22;3956;50.558;9.678;2022-08-03T15:38:17;32.90;99.90
7822;DHT22;3956;50.558;9.678;2022-08-03T15:40:57;32.10;99.90
7822;DHT22;3956;50.558;9.678;2022-08-03T15:43:41;32.30;99.90
7822;DHT22;3956;50.558;9.678;2022-08-03T15:46:13;32.40;99.90
7822;DHT22;3956;50.558;9.678;2022-08-03T15:49:03;32.40;99.90
7822;DHT22;3956;50.558;9.678;2022-08-03T15:51:47;32.80;99.90
7822;DHT22;3956;50.558;9.678;2022-08-03T15:54:58;32.50;99.90
7822;DHT22;3956;50.558;9.678;2022-08-03T15:57:51;32.50;99.90
7822;DHT22;3956;50.558;9.678;2022-08-03T16:01:12;32.40;99.90
7822;DHT22;3956;50.558;9.678;2022-08-03T16:04:36;32.40;99.90
7822;DHT22;3956;50.558;9.678;2022-08-03T16:07:09;32.40;99.90
7822;DHT22;3956;50.558;9.678;2022-08-03T16:09:38;32.20;99.90
7822;DHT22;3956;50.558;9.678;2022-08-03T16:12:22;32.50;99.90
7822;DHT22;3956;50.558;9.678;2022-08-03T16:15:35;32.40;99.90
7822;DHT22;3956;50.558;9.678;2022-08-03T16:19:16;32.60;99.90
7822;DHT22;3956;50.558;9.678;2022-08-03T16:21:55;32.40;99.90
7822;DHT22;3956;50.558;9.678;2022-08-03T16:24:28;32.40;99.90
7822;DHT22;3956;50.558;9.678;2022-08-03T16:27:51;32.40;99.90
7822;DHT22;3956;50.558;9.678;2022-08-03T16:30:45;32.40;99.90
7822;DHT22;3956;50.558;9.678;2022-08-03T16:33:14;32.60;99.90
7822;DHT22;3956;50.558;9.678;2022-08-03T16:35:46;32.60;99.90
7822;DHT22;3956;50.558;9.678;2022-08-03T16:38:17;32.40;99.90
7822;DHT22;3956;50.558;9.678;2022-08-03T16:40:48;32.40;99.90
7822;DHT22;3956;50.558;9.678;2022-08-03T16:43:23;32.10;99.90
7822;DHT22;3956;50.558;9.678;2022-08-03T16:46:01;32.10;99.90
7822;DHT22;3956;50.558;9.678;2022-08-03T16:52:21;32.10;99.90
7822;DHT22;3956;50.558;9.678;2022-08-03T16:55:10;32.10;99.90
7822;DHT22;3956;50.558;9.678;2022-08-03T16:57:46;31.90;99.90
7822;DHT22;3956;50.558;9.678;2022-08-03T17:00:26;32.00;99.90
7822;DHT22;3956;50.558;9.678;2022-08-03T17:03:00;31.90;99.90
7822;DHT22;3956;50.558;9.678;2022-08-03T17:05:38;31.80;99.90
7822;DHT22;3956;50.558;9.678;2022-08-03T17:08:18;31.70;99.90
7822;DHT22;3956;50.558;9.678;2022-08-03T17:11:16;31.70;99.90
7822;DHT22;3956;50.558;9.678;2022-08-03T17:14:15;31.60;99.90
7822;DHT22;3956;50.558;9.678;2022-08-03T17:17:07;31.50;99.90
7822;DHT22;3956;50.558;9.678;2022-08-03T17:20:30;31.50;99.90
7822;DHT22;3956;50.558;9.678;2022-08-03T17:23:37;31.40;99.90
7822;DHT22;3956;50.558;9.678;2022-08-03T17:26:13;31.50;99.90
7822;DHT22;3956;50.558;9.678;2022-08-03T17:28:49;31.30;99.90
7822;DHT22;3956;50.558;9.678;2022-08-03T17:31:27;31.30;99.90
7822;DHT22;3956;50.558;9.678;2022-08-03T17:34:25;31.30;99.90
7822;DHT22;3956;50.558;9.678;2022-08-03T17:37:04;31.30;99.90
7822;DHT22;3956;50.558;9.678;2022-08-03T17:40:11;31.20;99.90
7822;DHT22;3956;50.558;9.678;2022-08-03T17:42:59;31.20;99.90
7822;DHT22;3956;50.558;9.678;2022-08-03T17:45:50;31.10;99.90
7822;DHT22;3956;50.558;9.678;2022-08-03T17:48:25;30.80;99.90
7822;DHT22;3956;50.558;9.678;2022-08-03T17:50:57;30.80;99.90
7822;DHT22;3956;50.558;9.678;2022-08-03T17:53:33;30.80;99.90
7822;DHT22;3956;50.558;9.678;2022-08-03T17:56:14;30.80;99.90
7822;DHT22;3956;50.558;9.678;2022-08-03T17:59:15;30.70;99.90
7822;DHT22;3956;50.558;9.678;2022-08-03T18:02:14;30.70;99.90
7822;DHT22;3956;50.558;9.678;2022-08-03T18:05:28;30.60;99.90
7822;DHT22;3956;50.558;9.678;2022-08-03T18:08:22;30.50;99.90
7822;DHT22;3956;50.558;9.678;2022-08-03T18:10:59;30.40;99.90
7822;DHT22;3956;50.558;9.678;2022-08-03T18:14:18;30.30;99.90
7822;DHT22;3956;50.558;9.678;2022-08-03T18:17:31;30.20;99.90
7822;DHT22;3956;50.558;9.678;2022-08-03T18:20:28;30.20;99.90
7822;DHT22;3956;50.558;9.678;2022-08-03T18:26:31;29.90;99.90
7822;DHT22;3956;50.558;9.678;2022-08-03T18:29:41;29.80;99.90
7822;DHT22;3956;50.558;9.678;2022-08-03T18:32:15;29.50;99.90
7822;DHT22;3956;50.558;9.678;2022-08-03T18:34:51;29.40;99.90
7822;DHT22;3956;50.558;9.678;2022-08-03T18:37:23;29.30;99.90
7822;DHT22;3956;50.558;9.678;2022-08-03T18:39:54;29.30;99.90
7822;DHT22;3956;50.558;9.678;2022-08-03T18:42:45;29.20;99.90
7822;DHT22;3956;50.558;9.678;2022-08-03T18:45:21;29.00;99.90
7822;DHT22;3956;50.558;9.678;2022-08-03T18:48:13;28.80;99.90
7822;DHT22;3956;50.558;9.678;2022-08-03T18:51:08;28.80;99.90
7822;DHT22;3956;50.558;9.678;2022-08-03T18:54:09;28.70;99.90
7822;DHT22;3956;50.558;9.678;2022-08-03T18:57:08;28.60;99.90
7822;DHT22;3956;50.558;9.678;2022-08-03T18:59:48;28.60;99.90
7822;DHT22;3956;50.558;9.678;2022-08-03T19:02:27;28.60;99.90
7822;DHT22;3956;50.558;9.678;2022-08-03T19:05:04;28.50;99.90
7822;DHT22;3956;50.558;9.678;2022-08-03T19:07:38;28.40;99.90
7822;DHT22;3956;50.558;9.678;2022-08-03T19:10:31;28.20;99.90
7822;DHT22;3956;50.558;9.678;2022-08-03T19:13:22;28.10;99.90
7822;DHT22;3956;50.558;9.678;2022-08-03T19:16:03;28.00;99.90
7822;DHT22;3956;50.558;9.678;2022-08-03T19:18:44;28.00;99.90
7822;DHT22;3956;50.558;9.678;2022-08-03T19:21:41;27.90;99.90
7822;DHT22;3956;50.558;9.678;2022-08-03T19:24:57;27.80;99.90
7822;DHT22;3956;50.558;9.678;2022-08-03T19:28:02;27.70;99.90
7822;DHT22;3956;50.558;9.678;2022-08-03T19:30:48;27.50;99.90
7822;DHT22;3956;50.558;9.678;2022-08-03T19:36:37;27.40;99.90
7822;DHT22;3956;50.558;9.678;2022-08-03T19:39:10;27.30;99.90
7822;DHT22;3956;50.558;9.678;2022-08-03T19:41:40;27.20;99.90
7822;DHT22;3956;50.558;9.678;2022-08-03T19:44:19;27.10;99.90
7822;DHT22;3956;50.558;9.678;2022-08-03T19:46:53;27.00;99.90
7822;DHT22;3956;50.558;9.678;2022-08-03T19:49:26;26.90;99.90
7822;DHT22;3956;50.558;9.678;2022-08-03T19:52:19;26.80;99.90
7822;DHT22;3956;50.558;9.678;2022-08-03T19:54:59;26.70;99.90
7822;DHT22;3956;50.558;9.678;2022-08-03T19:57:32;26.80;99.90
7822;DHT22;3956;50.558;9.678;2022-08-03T20:00:04;26.70;99.90
7822;DHT22;3956;50.558;9.678;2022-08-03T20:02:42;26.70;99.90
7822;DHT22;3956;50.558;9.678;2022-08-03T20:05:14;26.60;99.90
7822;DHT22;3956;50.558;9.678;2022-08-03T20:07:43;26.60;99.90
7822;DHT22;3956;50.558;9.678;2022-08-03T20:10:15;26.50;99.90
7822;DHT22;3956;50.558;9.678;2022-08-03T20:12:45;26.40;99.90
7822;DHT22;3956;50.558;9.678;2022-08-03T20:15:16;26.30;99.90
7822;DHT22;3956;50.558;9.678;2022-08-03T20:18:00;26.30;99.90
7822;DHT22;3956;50.558;9.678;2022-08-03T20:20:31;26.20;99.90
7822;DHT22;3956;50.558;9.678;2022-08-03T20:23:12;26.10;99.90
7822;DHT22;3956;50.558;9.678;2022-08-03T20:25:46;26.10;99.90